createdAt,value
2023-04-22T00:01:28.913Z,95974.31
2023-04-22T00:03:56.003Z,95979.00
2023-04-22T00:06:23.013Z,95985.97
2023-04-22T00:08:50.219Z,95978.28
2023-04-22T00:11:17.022Z,95983.50
2023-04-22T00:13:44.509Z,95977.69
2023-04-22T00:16:11.771Z,95974.06
2023-04-22T00:18:38.660Z,95971.22
2023-04-22T00:21:06.179Z,95980.75
2023-04-22T00:23:33.117Z,95974.06
2023-04-22T00:26:00.848Z,95973.25
2023-04-22T00:28:27.863Z,95975.75
2023-04-22T00:30:54.790Z,95976.50
2023-04-22T00:33:21.623Z,95971.06
2023-04-22T00:35:48.485Z,95971.84
2023-04-22T00:38:15.494Z,95970.09
2023-04-22T00:40:42.400Z,95973.13
2023-04-22T00:43:09.686Z,95974.34
2023-04-22T00:45:37.740Z,95979.75
2023-04-22T00:48:05.253Z,95976.78
2023-04-22T00:50:32.229Z,95972.25
2023-04-22T00:52:59.058Z,95977.50
2023-04-22T00:55:26.322Z,95975.44
2023-04-22T00:57:55.442Z,95971.63
2023-04-22T01:00:27.268Z,95966.63
2023-04-22T01:02:55.995Z,95967.50
2023-04-22T01:05:24.842Z,95968.09
2023-04-22T01:07:51.726Z,95970.63
2023-04-22T01:10:18.936Z,95966.75
2023-04-22T01:12:45.829Z,95971.69
2023-04-22T01:15:13.070Z,95969.31
2023-04-22T01:17:40.032Z,95968.09
2023-04-22T01:20:10.320Z,95963.44
2023-04-22T01:22:42.801Z,95972.66
2023-04-22T01:25:11.555Z,95966.53
2023-04-22T01:27:39.434Z,95971.78
2023-04-22T01:30:07.338Z,95969.72
2023-04-22T01:32:34.378Z,95968.31
2023-04-22T01:35:01.232Z,95966.69
2023-04-22T01:37:29.068Z,95965.22
2023-04-22T01:39:58.210Z,95971.34
2023-04-22T01:42:25.598Z,95963.69
2023-04-22T01:44:52.515Z,95962.47
2023-04-22T01:47:19.451Z,95964.91
2023-04-22T01:49:46.395Z,95966.53
2023-04-22T01:52:13.573Z,95960.41
2023-04-22T01:54:41.605Z,95972.56
2023-04-22T01:57:14.141Z,95963.63
2023-04-22T01:59:41.922Z,95961.63
2023-04-22T02:02:09.152Z,95957.91
2023-04-22T02:04:36.508Z,95954.69
2023-04-22T02:07:03.390Z,95956.69
2023-04-22T02:09:30.359Z,95968.72
2023-04-22T02:11:57.189Z,95956.31
2023-04-22T02:14:24.067Z,95957.31
2023-04-22T02:16:51.713Z,95962.28
2023-04-22T02:19:18.589Z,95970.94
2023-04-22T02:21:45.467Z,95973.78
2023-04-22T02:24:12.282Z,95985.97
2023-04-22T02:26:39.157Z,95984.81
2023-04-22T02:29:06.124Z,95986.84
2023-04-22T02:31:33.016Z,95987.06
2023-04-22T02:33:59.915Z,95986.28
2023-04-22T02:36:27.731Z,95981.31
2023-04-22T02:38:55.252Z,95980.94
2023-04-22T02:41:22.144Z,95984.16
2023-04-22T02:43:49.058Z,95975.06
2023-04-22T02:46:16.568Z,95975.72
2023-04-22T02:48:43.625Z,95989.50
2023-04-22T02:51:11.310Z,95975.97
2023-04-22T02:53:38.391Z,95989.63
2023-04-22T02:56:05.756Z,95988.84
2023-04-22T02:58:32.619Z,95981.19
2023-04-22T03:00:59.541Z,95980.00
2023-04-22T03:03:26.593Z,95971.50
2023-04-22T03:05:53.590Z,95972.72
2023-04-22T03:08:20.884Z,95967.44
2023-04-22T03:10:47.961Z,95968.25
2023-04-22T03:13:14.798Z,95966.66
2023-04-22T03:15:42.004Z,95958.16
2023-04-22T03:18:09.422Z,95965.84
2023-04-22T03:20:36.706Z,95968.28
2023-04-22T03:23:03.536Z,95967.91
2023-04-22T03:25:30.456Z,95972.38
2023-04-22T03:27:57.231Z,95966.28
2023-04-22T03:30:24.175Z,95970.53
2023-04-22T03:32:52.513Z,95957.66
2023-04-22T03:35:20.636Z,95959.06
2023-04-22T03:37:47.518Z,95970.00
2023-04-22T03:40:14.469Z,95969.22
2023-04-22T03:42:41.300Z,95971.22
2023-04-22T03:45:08.326Z,95971.41
2023-04-22T03:47:35.181Z,95982.97
2023-04-22T03:50:02.129Z,95969.03
2023-04-22T03:52:28.951Z,95975.09
2023-04-22T03:54:55.766Z,95964.38
2023-04-22T03:57:22.615Z,95975.69
2023-04-22T03:59:49.396Z,95980.91
2023-04-22T04:02:16.345Z,95975.47
2023-04-22T04:04:43.611Z,95973.28
2023-04-22T04:07:10.577Z,95988.41
2023-04-22T04:09:37.721Z,95978.50
2023-04-22T04:12:04.905Z,95987.78
2023-04-22T04:14:31.708Z,95980.50
2023-04-22T04:16:58.632Z,95976.28
2023-04-22T04:19:25.514Z,95968.41
2023-04-22T04:21:52.417Z,95982.75
2023-04-22T04:24:19.378Z,95985.16
2023-04-22T04:26:46.647Z,95979.50
2023-04-22T04:29:13.705Z,95982.53
2023-04-22T04:31:41.353Z,95986.59
2023-04-22T04:34:08.221Z,95993.03
2023-04-22T04:36:35.334Z,95992.22
2023-04-22T04:39:02.148Z,95991.84
2023-04-22T04:41:29.541Z,95987.00
2023-04-22T04:43:56.576Z,95985.16
2023-04-22T04:46:23.529Z,95983.75
2023-04-22T04:48:51.704Z,95985.97
2023-04-22T04:51:20.371Z,95988.19
2023-04-22T04:53:47.461Z,95980.50
2023-04-22T04:56:14.317Z,95973.66
2023-04-22T04:58:41.098Z,95975.66
2023-04-22T05:01:07.957Z,95981.31
2023-04-22T05:03:34.845Z,95984.94
2023-04-22T05:06:01.849Z,95983.66
2023-04-22T05:08:28.718Z,95989.31
2023-04-22T05:10:56.043Z,95993.50
2023-04-22T05:13:22.878Z,95997.22
2023-04-22T05:15:49.806Z,95995.94
2023-04-22T05:18:16.640Z,95997.94
2023-04-22T05:20:43.595Z,95994.03
2023-04-22T05:23:10.420Z,96003.66
2023-04-22T05:25:37.442Z,96008.31
2023-04-22T05:28:04.302Z,96000.59
2023-04-22T05:30:31.107Z,96005.78
2023-04-22T05:32:58.093Z,95999.97
2023-04-22T05:35:24.952Z,96006.41
2023-04-22T05:37:51.766Z,96007.13
2023-04-22T05:40:18.720Z,96006.31
2023-04-22T05:42:45.541Z,96004.44
2023-04-22T05:45:12.432Z,96003.84
2023-04-22T05:47:39.365Z,96008.44
2023-04-22T05:50:07.359Z,96012.25
2023-04-22T05:52:34.253Z,96009.59
2023-04-22T05:55:01.622Z,96004.16
2023-04-22T05:57:28.434Z,96006.38
2023-04-22T05:59:55.347Z,96002.53
2023-04-22T06:02:22.298Z,96002.38
2023-04-22T06:04:49.597Z,96008.06
2023-04-22T06:07:17.010Z,96017.47
2023-04-22T06:09:43.923Z,96015.19
2023-04-22T06:12:11.371Z,96018.28
2023-04-22T06:14:38.202Z,96008.84
2023-04-22T06:17:05.078Z,96011.34
2023-04-22T06:19:31.984Z,96017.66
2023-04-22T06:21:58.832Z,96019.16
2023-04-22T06:24:25.697Z,96019.84
2023-04-22T06:26:52.528Z,96024.81
2023-04-22T06:29:19.633Z,96023.19
2023-04-22T06:31:46.479Z,96023.25
2023-04-22T06:34:13.321Z,96027.22
2023-04-22T06:36:40.265Z,96028.66
2023-04-22T06:39:07.419Z,96031.97
2023-04-22T06:41:34.561Z,96032.75
2023-04-22T06:44:01.500Z,96044.97
2023-04-22T06:46:28.418Z,96045.50
2023-04-22T06:48:55.349Z,96031.19
2023-04-22T06:51:22.211Z,96040.72
2023-04-22T06:53:49.079Z,96031.69
2023-04-22T06:56:15.989Z,96035.91
2023-04-22T06:58:42.789Z,96030.50
2023-04-22T07:01:09.708Z,96026.50
2023-04-22T07:03:36.660Z,96026.19
2023-04-22T07:06:04.354Z,96035.44
2023-04-22T07:08:31.195Z,96032.94
2023-04-22T07:10:58.162Z,96038.25
2023-04-22T07:13:26.916Z,96042.34
2023-04-22T07:15:53.793Z,96035.63
2023-04-22T07:18:20.704Z,96031.78
2023-04-22T07:20:47.507Z,96025.19
2023-04-22T07:23:14.381Z,96030.94
2023-04-22T07:25:41.223Z,96018.84
2023-04-22T07:28:08.066Z,96029.34
2023-04-22T07:30:34.862Z,96015.13
2023-04-22T07:33:01.819Z,96019.97
2023-04-22T07:35:29.779Z,96006.50
2023-04-22T07:37:56.689Z,96007.81
2023-04-22T07:40:23.481Z,96009.28
2023-04-22T07:42:50.325Z,96004.66
2023-04-22T07:45:17.291Z,96003.13
2023-04-22T07:47:44.137Z,96002.66
2023-04-22T07:50:11.531Z,96008.59
2023-04-22T07:52:38.369Z,96003.91
2023-04-22T07:55:06.340Z,96003.25
2023-04-22T07:57:38.429Z,96001.69
2023-04-22T08:00:08.093Z,95995.94
2023-04-22T08:02:35.179Z,95988.47
2023-04-22T08:05:02.189Z,95993.28
2023-04-22T08:07:32.978Z,95994.06
2023-04-22T08:10:00.635Z,95997.25
2023-04-22T08:12:28.014Z,95997.03
2023-04-22T08:14:54.878Z,96003.34
2023-04-22T08:17:21.815Z,96009.28
2023-04-22T08:19:49.153Z,96005.00
2023-04-22T08:22:17.815Z,96008.19
2023-04-22T08:24:44.930Z,96003.59
2023-04-22T08:27:11.938Z,96006.50
2023-04-22T08:29:38.991Z,96005.84
2023-04-22T08:32:06.284Z,96006.41
2023-04-22T08:34:33.298Z,96008.16
2023-04-22T08:37:00.198Z,96007.56
2023-04-22T08:39:27.030Z,96007.28
2023-04-22T08:41:56.231Z,96005.53
2023-04-22T08:44:23.217Z,96008.72
2023-04-22T08:46:51.917Z,96015.72
2023-04-22T08:49:19.683Z,96012.66
2023-04-22T08:51:46.570Z,96013.59
2023-04-22T08:54:13.428Z,96004.31
2023-04-22T08:56:44.452Z,96014.34
2023-04-22T08:59:12.794Z,96002.50
2023-04-22T09:01:41.484Z,96005.25
2023-04-22T09:04:10.859Z,96001.22
2023-04-22T09:06:38.956Z,96000.53
2023-04-22T09:09:06.078Z,95994.19
2023-04-22T09:11:33.737Z,95997.06
2023-04-22T09:14:00.784Z,95989.88
2023-04-22T09:16:44.680Z,95984.16
2023-04-22T09:19:13.141Z,95975.44
2023-04-22T09:21:41.094Z,95987.41
2023-04-22T09:24:10.809Z,95985.72
2023-04-22T09:26:42.521Z,95985.72
2023-04-22T09:29:15.406Z,95982.50
2023-04-22T09:31:42.964Z,95972.66
2023-04-22T09:34:09.809Z,95975.41
2023-04-22T09:36:39.450Z,95973.78
2023-04-22T09:39:08.227Z,95982.03
2023-04-22T09:41:40.369Z,95972.53
2023-04-22T09:44:16.086Z,95973.19
2023-04-22T09:46:44.980Z,95974.41
2023-04-22T09:49:11.856Z,95970.84
2023-04-22T09:51:42.526Z,95960.03
2023-04-22T09:54:11.577Z,95974.91
2023-04-22T09:56:51.370Z,95963.94
2023-04-22T09:59:26.268Z,95965.72
2023-04-22T10:01:56.695Z,95961.63
2023-04-22T10:04:25.606Z,95960.88
2023-04-22T10:06:56.913Z,95959.16
2023-04-22T10:09:25.595Z,95959.59
2023-04-22T10:11:55.275Z,95954.78
2023-04-22T10:14:23.184Z,95946.03
2023-04-22T10:16:56.731Z,95954.59
2023-04-22T10:19:26.061Z,95958.31
2023-04-22T10:21:57.547Z,95951.59
2023-04-22T10:24:27.999Z,95945.94
2023-04-22T10:27:01.391Z,95940.88
2023-04-22T10:29:38.654Z,95948.00
2023-04-22T10:32:18.024Z,95941.22
2023-04-22T10:34:47.792Z,95945.69
2023-04-22T10:37:19.115Z,95947.03
2023-04-22T10:40:16.653Z,95927.34
2023-04-22T10:42:53.081Z,95944.84
2023-04-22T10:45:25.534Z,95943.41
2023-04-22T10:47:52.546Z,95927.66
2023-04-22T10:50:27.711Z,95937.75
2023-04-22T10:53:03.194Z,95933.16
2023-04-22T10:55:51.870Z,95921.13
2023-04-22T10:58:21.431Z,95919.72
2023-04-22T11:00:54.228Z,95919.06
2023-04-22T11:03:28.593Z,95915.53
2023-04-22T11:06:22.497Z,95912.75
2023-04-22T11:08:51.197Z,95920.72
2023-04-22T11:11:19.605Z,95917.59
2023-04-22T11:13:50.842Z,95924.28
2023-04-22T11:16:22.343Z,95922.56
2023-04-22T11:18:49.602Z,95912.50
2023-04-22T11:21:16.851Z,95910.00
2023-04-22T11:23:54.230Z,95911.84
2023-04-22T11:26:35.308Z,95903.63
2023-04-22T11:29:02.294Z,95900.34
2023-04-22T11:31:29.267Z,95900.19
2023-04-22T11:34:00.260Z,95900.56
2023-04-22T11:36:27.699Z,95905.34
2023-04-22T11:38:56.330Z,95892.28
2023-04-22T11:41:23.755Z,95908.16
2023-04-22T11:43:50.583Z,95898.75
2023-04-22T11:46:28.114Z,95898.69
2023-04-22T11:48:55.085Z,95889.97
2023-04-22T11:51:21.901Z,95891.84
2023-04-22T11:53:51.582Z,95898.00
2023-04-22T11:56:18.433Z,95888.66
2023-04-22T11:58:45.269Z,95891.19
2023-04-22T12:01:14.069Z,95880.81
2023-04-22T12:03:42.380Z,95891.53
2023-04-22T12:06:09.632Z,95887.59
2023-04-22T12:08:44.419Z,95886.94
2023-04-22T12:11:13.497Z,95890.44
2023-04-22T12:13:46.341Z,95891.97
2023-04-22T12:16:19.513Z,95890.13
2023-04-22T12:18:54.805Z,95883.13
2023-04-22T12:21:28.156Z,95875.50
2023-04-22T12:24:04.750Z,95888.50
2023-04-22T12:26:31.840Z,95876.44
2023-04-22T12:29:00.282Z,95880.03
2023-04-22T12:31:28.309Z,95881.19
2023-04-22T12:33:55.895Z,95879.50
2023-04-22T12:36:26.423Z,95884.09
2023-04-22T12:38:53.318Z,95889.25
2023-04-22T12:41:20.178Z,95881.03
2023-04-22T12:43:47.666Z,95885.91
2023-04-22T12:46:14.711Z,95874.41
2023-04-22T12:48:42.768Z,95869.13
2023-04-22T12:51:09.667Z,95877.06
2023-04-22T12:53:36.550Z,95863.56
2023-04-22T12:56:03.505Z,95860.16
2023-04-22T12:58:30.390Z,95866.38
2023-04-22T13:00:57.238Z,95861.50
2023-04-22T13:03:24.387Z,95862.25
2023-04-22T13:05:52.294Z,95856.63
2023-04-22T13:08:19.136Z,95855.84
2023-04-22T13:10:46.254Z,95853.84
2023-04-22T13:13:17.570Z,95848.22
2023-04-22T13:15:47.605Z,95845.88
2023-04-22T13:18:16.749Z,95847.44
2023-04-22T13:20:43.848Z,95838.41
2023-04-22T13:23:11.379Z,95826.31
2023-04-22T13:25:38.271Z,95834.22
2023-04-22T13:28:05.082Z,95832.00
2023-04-22T13:30:31.887Z,95823.75
2023-04-22T13:32:58.814Z,95813.72
2023-04-22T13:35:25.669Z,95812.22
2023-04-22T13:37:52.648Z,95817.19
2023-04-22T13:40:19.611Z,95817.38
2023-04-22T13:42:46.558Z,95815.00
2023-04-22T13:45:13.511Z,95806.00
2023-04-22T13:47:40.541Z,95794.41
2023-04-22T13:50:09.105Z,95800.97
2023-04-22T13:52:36.662Z,95801.16
2023-04-22T13:55:04.377Z,95799.56
2023-04-22T13:57:31.565Z,95791.84
2023-04-22T13:59:58.416Z,95794.00
2023-04-22T14:02:25.299Z,95790.13
2023-04-22T14:04:52.336Z,95784.19
2023-04-22T14:07:19.385Z,95783.56
2023-04-22T14:09:46.207Z,95781.97
2023-04-22T14:12:13.356Z,95775.13
2023-04-22T14:14:40.241Z,95781.66
2023-04-22T14:17:08.430Z,95776.47
2023-04-22T14:19:38.982Z,95774.41
2023-04-22T14:22:06.655Z,95767.25
2023-04-22T14:24:33.592Z,95761.50
2023-04-22T14:27:01.730Z,95768.16
2023-04-22T14:29:29.834Z,95772.03
2023-04-22T14:31:58.320Z,95766.53
2023-04-22T14:34:26.865Z,95755.81
2023-04-22T14:36:53.854Z,95749.09
2023-04-22T14:39:21.436Z,95748.72
2023-04-22T14:41:48.548Z,95739.91
2023-04-22T14:44:15.761Z,95743.34
2023-04-22T14:46:42.627Z,95746.72
2023-04-22T14:49:09.451Z,95738.56
2023-04-22T14:51:36.614Z,95735.16
2023-04-22T14:54:03.550Z,95743.03
2023-04-22T14:56:30.527Z,95735.34
2023-04-22T14:58:57.391Z,95738.06
2023-04-22T15:01:24.298Z,95734.22
2023-04-22T15:03:52.130Z,95739.69
2023-04-22T15:06:19.190Z,95732.66
2023-04-22T15:08:46.270Z,95736.56
2023-04-22T15:11:13.249Z,95738.94
2023-04-22T15:13:40.312Z,95734.19
2023-04-22T15:16:07.301Z,95735.31
2023-04-22T15:18:35.508Z,95747.44
2023-04-22T15:21:03.371Z,95743.56
2023-04-22T15:23:30.216Z,95748.91
2023-04-22T15:25:57.069Z,95735.34
2023-04-22T15:28:24.461Z,95737.25
2023-04-22T15:30:51.361Z,95732.75
2023-04-22T15:33:18.211Z,95737.47
2023-04-22T15:35:46.724Z,95732.28
2023-04-22T15:38:13.995Z,95738.44
2023-04-22T15:40:40.888Z,95735.72
2023-04-22T15:43:07.688Z,95727.63
2023-04-22T15:45:35.697Z,95729.75
2023-04-22T15:48:03.090Z,95724.97
2023-04-22T15:50:29.915Z,95734.97
2023-04-22T15:52:56.756Z,95737.53
2023-04-22T15:55:23.629Z,95736.56
2023-04-22T15:57:50.499Z,95746.38
2023-04-22T16:00:17.484Z,95739.63
2023-04-22T16:02:45.136Z,95737.44
2023-04-22T16:05:13.902Z,95739.03
2023-04-22T16:07:40.772Z,95737.44
2023-04-22T16:10:09.037Z,95733.41
2023-04-22T16:12:35.886Z,95739.13
2023-04-22T16:15:02.862Z,95743.31
2023-04-22T16:17:30.122Z,95747.75
2023-04-22T16:19:57.070Z,95744.91
2023-04-22T16:22:23.985Z,95740.91
2023-04-22T16:24:51.281Z,95741.41
2023-04-22T16:27:19.128Z,95732.91
2023-04-22T16:29:46.137Z,95746.78
2023-04-22T16:32:12.971Z,95737.75
2023-04-22T16:34:39.836Z,95731.25
2023-04-22T16:37:06.811Z,95734.31
2023-04-22T16:39:34.186Z,95730.25
2023-04-22T16:42:03.006Z,95735.03
2023-04-22T16:44:29.946Z,95726.41
2023-04-22T16:46:56.853Z,95736.78
2023-04-22T16:49:23.741Z,95740.78
2023-04-22T16:51:50.642Z,95733.81
2023-04-22T16:54:17.460Z,95733.88
2023-04-22T16:56:44.315Z,95724.19
2023-04-22T16:59:11.315Z,95723.38
2023-04-22T17:01:38.231Z,95726.94
2023-04-22T17:04:05.133Z,95722.88
2023-04-22T17:06:32.487Z,95723.09
2023-04-22T17:08:59.895Z,95725.72
2023-04-22T17:11:26.780Z,95732.00
2023-04-22T17:13:53.708Z,95718.19
2023-04-22T17:16:20.933Z,95721.41
2023-04-22T17:18:47.971Z,95720.84
2023-04-22T17:21:16.602Z,95715.00
2023-04-22T17:23:43.480Z,95716.16
2023-04-22T17:26:10.336Z,95716.78
2023-04-22T17:28:37.179Z,95723.88
2023-04-22T17:31:04.185Z,95726.94
2023-04-22T17:33:31.244Z,95728.34
2023-04-22T17:35:58.169Z,95720.38
2023-04-22T17:38:25.019Z,95726.28
2023-04-22T17:40:51.885Z,95735.16
2023-04-22T17:43:18.753Z,95725.63
2023-04-22T17:45:45.659Z,95728.84
2023-04-22T17:48:12.518Z,95726.50
2023-04-22T17:50:39.390Z,95727.03
2023-04-22T17:53:06.303Z,95727.06
2023-04-22T17:55:35.303Z,95727.72
2023-04-22T17:58:03.691Z,95735.34
2023-04-22T18:00:31.838Z,95740.25
2023-04-22T18:02:59.144Z,95736.03
2023-04-22T18:05:27.242Z,95740.00
2023-04-22T18:08:00.793Z,95749.59
2023-04-22T18:10:28.400Z,95749.91
2023-04-22T18:12:55.427Z,95744.06
2023-04-22T18:15:25.625Z,95748.34
2023-04-22T18:17:52.587Z,95747.81
2023-04-22T18:20:19.857Z,95747.28
2023-04-22T18:22:49.324Z,95759.53
2023-04-22T18:25:16.435Z,95757.44
2023-04-22T18:27:43.854Z,95761.16
2023-04-22T18:30:11.202Z,95760.63
2023-04-22T18:32:38.272Z,95762.25
2023-04-22T18:35:06.065Z,95765.94
2023-04-22T18:37:34.590Z,95759.03
2023-04-22T18:40:02.308Z,95762.22
2023-04-22T18:42:29.142Z,95769.06
2023-04-22T18:44:56.119Z,95773.56
2023-04-22T18:47:23.071Z,95785.84
2023-04-22T18:49:50.022Z,95783.97
2023-04-22T18:52:17.201Z,95780.78
2023-04-22T18:54:44.508Z,95778.09
2023-04-22T18:57:11.507Z,95783.13
2023-04-22T18:59:38.701Z,95787.88
2023-04-22T19:02:05.998Z,95793.66
2023-04-22T19:04:32.978Z,95794.31
2023-04-22T19:06:59.908Z,95791.66
2023-04-22T19:09:26.846Z,95802.16
2023-04-22T19:11:53.892Z,95804.34
2023-04-22T19:14:20.777Z,95799.19
2023-04-22T19:16:47.583Z,95803.38
2023-04-22T19:19:14.755Z,95811.84
2023-04-22T19:21:41.637Z,95810.28
2023-04-22T19:24:09.654Z,95817.97
2023-04-22T19:26:36.772Z,95814.53
2023-04-22T19:29:03.789Z,95828.31
2023-04-22T19:31:30.968Z,95823.97
2023-04-22T19:33:58.248Z,95831.41
2023-04-22T19:36:25.323Z,95832.97
2023-04-22T19:38:52.091Z,95824.06
2023-04-22T19:41:18.907Z,95829.28
2023-04-22T19:43:46.164Z,95832.91
2023-04-22T19:46:13.178Z,95839.56
2023-04-22T19:48:40.906Z,95840.09
2023-04-22T19:51:08.019Z,95840.69
2023-04-22T19:53:35.489Z,95846.03
2023-04-22T19:56:03.013Z,95847.44
2023-04-22T19:58:30.625Z,95848.25
2023-04-22T20:00:57.668Z,95852.66
2023-04-22T20:03:25.085Z,95862.53
2023-04-22T20:05:52.661Z,95861.69
2023-04-22T20:08:20.086Z,95860.97
2023-04-22T20:10:49.603Z,95862.94
2023-04-22T20:13:17.564Z,95852.66
2023-04-22T20:15:44.740Z,95851.44
2023-04-22T20:18:12.093Z,95849.06
2023-04-22T20:20:41.441Z,95856.34
2023-04-22T20:23:12.760Z,95850.00
2023-04-22T20:25:47.135Z,95845.78
2023-04-22T20:28:14.553Z,95855.78
2023-04-22T20:30:41.773Z,95857.44
2023-04-22T20:33:12.305Z,95855.09
2023-04-22T20:35:40.964Z,95859.16
2023-04-22T20:38:13.036Z,95863.00
2023-04-22T20:40:40.563Z,95860.97
2023-04-22T20:43:07.729Z,95853.50
2023-04-22T20:45:35.116Z,95850.03
2023-04-22T20:48:02.410Z,95851.97
2023-04-22T20:50:33.444Z,95861.56
2023-04-22T20:53:01.151Z,95858.13
2023-04-22T20:55:27.963Z,95861.34
2023-04-22T20:57:54.976Z,95855.13
2023-04-22T21:00:22.307Z,95866.78
2023-04-22T21:02:50.288Z,95860.88
2023-04-22T21:05:17.868Z,95866.19
2023-04-22T21:07:47.522Z,95872.41
2023-04-22T21:10:14.781Z,95865.56
2023-04-22T21:12:42.046Z,95858.75
2023-04-22T21:15:09.823Z,95865.16
2023-04-22T21:17:41.302Z,95863.84
2023-04-22T21:20:09.370Z,95864.09
2023-04-22T21:22:37.721Z,95863.47
2023-04-22T21:25:05.928Z,95865.50
2023-04-22T21:27:33.036Z,95859.50
2023-04-22T21:30:00.700Z,95858.44
2023-04-22T21:32:29.400Z,95860.53
2023-04-22T21:34:56.792Z,95856.78
2023-04-22T21:37:23.972Z,95874.22
2023-04-22T21:39:50.762Z,95865.34
2023-04-22T21:42:17.569Z,95880.50
2023-04-22T21:44:49.551Z,95878.53
2023-04-22T21:47:16.702Z,95875.03
2023-04-22T21:49:45.829Z,95872.25
2023-04-22T21:52:12.604Z,95875.34
2023-04-22T21:54:39.637Z,95877.09
2023-04-22T21:57:06.658Z,95882.06
2023-04-22T21:59:33.513Z,95883.06
2023-04-22T22:02:00.357Z,95879.78
2023-04-22T22:04:27.250Z,95881.72
2023-04-22T22:06:54.161Z,95879.00
2023-04-22T22:09:21.328Z,95877.28
2023-04-22T22:11:48.220Z,95876.66
2023-04-22T22:14:15.070Z,95883.97
2023-04-22T22:16:42.402Z,95886.63
2023-04-22T22:19:10.436Z,95876.91
2023-04-22T22:21:37.822Z,95889.69
2023-04-22T22:24:04.753Z,95885.97
2023-04-22T22:26:31.592Z,95876.97
2023-04-22T22:28:58.443Z,95888.41
2023-04-22T22:31:25.372Z,95889.38
2023-04-22T22:33:52.292Z,95879.00
2023-04-22T22:36:19.688Z,95894.03
2023-04-22T22:38:46.688Z,95892.56
2023-04-22T22:41:14.040Z,95895.16
2023-04-22T22:43:40.877Z,95897.63
2023-04-22T22:46:07.851Z,95896.75
2023-04-22T22:48:34.962Z,95889.78
2023-04-22T22:51:01.747Z,95892.44
2023-04-22T22:53:28.636Z,95896.28
2023-04-22T22:55:55.492Z,95889.69
2023-04-22T22:58:22.297Z,95896.09
2023-04-22T23:00:49.253Z,95902.03
2023-04-22T23:03:19.164Z,95907.50
2023-04-22T23:05:46.726Z,95894.75
2023-04-22T23:08:14.651Z,95897.56
2023-04-22T23:10:41.541Z,95907.09
2023-04-22T23:13:08.363Z,95902.84
2023-04-22T23:15:35.265Z,95904.47
2023-04-22T23:18:02.534Z,95905.13
2023-04-22T23:20:30.598Z,95905.56
2023-04-22T23:22:58.065Z,95910.25
2023-04-22T23:25:25.302Z,95907.03
2023-04-22T23:27:52.822Z,95895.28
2023-04-22T23:30:20.403Z,95901.53
2023-04-22T23:32:48.824Z,95903.34
2023-04-22T23:35:16.084Z,95895.09
2023-04-22T23:37:46.937Z,95894.50
2023-04-22T23:40:14.051Z,95896.66
2023-04-22T23:42:40.934Z,95897.56
2023-04-22T23:45:08.695Z,95904.47
2023-04-22T23:47:35.792Z,95899.47
2023-04-22T23:50:03.497Z,95898.81
2023-04-22T23:52:30.390Z,95904.09
2023-04-22T23:54:57.914Z,95903.94
2023-04-22T23:57:25.300Z,95903.72
2023-04-22T23:59:52.389Z,95904.44
